KFST

Fort Stockton-Pecos County Airport

Fort Stockton, Texas, USA
METAR KFST 191453Z AUTO 22014KT 10SM CLR 08/M06 A3010 RMK AO2 SLP177 T00831056 50003
Observed Flight Rules
Jan-19 @ 14:53 UTC (35 minutes ago) Visual Flight Rules
Wind Visibility Clouds
220° at 14 knots 10 miles
  • Clear skies
Temperatures Readings
Current 8°C / 46°F
Dewpoint -6°C / 21°F
Humidity 37%
Altimeter 30.1" Hg
Pressure 1017.7 hPa
Elevation 918
METAR KFST 191453Z AUTO 22014KT 10SM CLR 08/M06 A3010 RMK AO2 SLP177 T00831056 50003
Observed Flight Rules
Jan-19 @ 14:53 UTC
(35 minutes ago)
VFR
Wind Visibility
220° at 14 knots 10 miles
Clouds
  • Clear skies
Temperature Dewpoint
8°C / 46°F -6°C / 21°F
Humidity Altimeter Pressure
37% 30.1" Hg 1017.7 hPa